Aeroporto :
LOGIN :

Iscrizione | Disclaimer

   EN    FR    IT 

 










Sommario :    VFR   VFR Marginale   IFR   IFR Intensivo   IFR Molto Intensivo
Visibilità : 
Base nubi : 
>= 8 km
>= 3000ft
5 / 8 km
1000 / 3000 ft
1500m / 5 km
500 / 1000 ft
800 / 1500m
200 / 500 ft
< 800m
< 200 ft
Simboli :   Temporali  Nebbia  Neve Forte  Precipitazioni Forti  Vento > 20 kt
SIGMETs :   Varie  Temporali  Ghiacco  Turbolenza  Onda orograficha  Ceneri Vulcaniche






- Altitudine del aeroporto : 142 ft
- Codice IATA : FLR


LIRQ - Firenze Amerigo Vespucci

ULTIMO METAR :
  • 141050Z 27008KT 210V300 9999 BKN050 23/12 Q1019

METARs OBSOLETI :
  • 141020Z 25007KT 210V310 9999 BKN050 23/12 Q1019
  • 140950Z VRB05G15KT 9999 SCT045 22/12 Q1018
  • 140920Z 25007KT 210V310 9999 SCT040 23/12 Q1019
  • 140850Z VRB04KT 9999 SCT035 22/13 Q1018
  • 140820Z 25007KT 190V300 9999 SCT030 21/13 Q1018
  • 140750Z VRB02KT 9999 BKN025 20/14 Q1018
  • 140720Z VRB02KT 9999 SCT025 20/14 Q1018
  • 140650Z VRB02KT 9999 SCT025 19/14 Q1019
  • 140620Z VRB01KT 9999 BKN025 18/13 Q1018

TAF TAF LIRQ
Valido dal 14 a 06 ore il 15 a 06 ore UTC


140500Z 1406/1506 VRB05KT 9999 SCT040
BECMG 1409/1411 26012KT
BECMG 1417/1419 VRB05KT



MetMap, La meteo Aeronautica in un colpo d'occhio ! - Copyright ORBIFLY Dicembre 2007 - Disclaimer

ORBIFLY MET'MAP TEAM :

Programmazione e sviluppo : Alexandra Zaïnal
Concezione : Baudouin d'Aumeries
Supporto tecnico e logistico : Manuel Goepfert
Aiuto : Marc-Olivier Méhu
Aiuto per la traduzione : Arnaldo La Scala




FONTI E CREDITI :

   NOAA